Newberry Springs, CA (92365)

3:05 PM PDT on July 29, 2016 (GMT -0700)
Riverside Road | | Change Station
Active Advisory: Excessive Heat Warning Active Notice: Record Report

Elev 1814 ft 34.91 °N, 116.66 °W | Updated 7 seconds ago

Clear
Clear
113.2 °F
Feels Like 109 °F
N
2.0
Wind Variable Wind from South
Gusts 8.0 mph

Today
High -- | Low -- °F
--% Chance of Precip.
Yesterday
High -- | Low -- °F
Precip. -- in
Pressure 29.76 in
Visibility 10.0 miles
Clouds Clear
Heat Index 109 °F
Dew Point 46 °F
Humidity 11%
Rainfall 0.00 in
Snow Depth Not available.
5:54 AM 7:51 PM
Waning Crescent, 18% visible
SPECI KDAG 292202Z AUTO VRB05KT 10SM CLR 43/06 A2976 RMK AO2 TSE2151 T04330056
Pressure 29.76 in
Visibility 10.0 miles
Clouds Clear
Heat Index 109 °F
Dew Point 46 °F
Humidity 11%
Rainfall 0.00 in
Snow Depth Not available.
5:54 AM 7:51 PM
Waning Crescent, 18% visible
SPECI KDAG 292202Z AUTO VRB05KT 10SM CLR 43/06 A2976 RMK AO2 TSE2151 T04330056

10-Day Weather Forecast

Almanac

Astronomy

Jul. 29, 2016 Rise Set
Actual Time
Civil Twilight
Nautical Twilight
Astronomical Twilight
Moon
Length of Visible Light
Length of Day
Tomorrow will be .
, % of the Moon is Illuminated

Today's Extremes

State Highs State Lows

Community

WunderPhotos

Upload Photos

1,928,427 photos uploaded!

WunderBlog® & News

Nearby

Air Quality

  Air Quality AQ Index Pollutant
Not available.

Snow Depth

Station Depth Elevation

Earthquake Activity

City Distance Mag. Time & Date
Minimum magnitude displayed is 2.5.

Coastal Water Temperatures

Place Temperature

Stations

Nearby Weather Stations

Station Location Temp. Windchill Dew Point Humidity Wind Precip. Elev Updated Type
                   

Watches & Warnings

Excessive Heat Warning
Issued: 2:35 AM MDT Jul. 29, 2016 – National Weather Service

... Excessive heat warning remains in effect until 8 PM PDT /8 PM
MST/ this evening...

* temperature... highs 110 to 115 in the Las Vegas Valley and the
Mojave Desert... 115 to 120 in the Colorado River valley and near
125 for Death Valley are expected.

* Impacts... an excessive heat warning means that a prolonged
period of dangerously hot temperatures will occur. Heat
related illnesses such as heat exhaustion and heat stroke will
be likely. People most vulnerable include those who are
spending lots of time outdoors... those who do not have air
conditioning... Young children... the elderly... and those with
chronic ailments.

Precautionary/preparedness actions...

Drink plenty of liquids... stay in an air-conditioned room... stay
out of the sun... and check up on relatives and neighbors. If you
plan to be outside... avoid prolonged exposure or strenuous
physical activity and take frequent breaks in the shade.
Alcoholic and caffeinated beverages should be avoided. Wear light
weight... light colored... loose fitting clothing. Young children
and pets should never be left unattended in vehicles under any
circumstances.